sensor_id;sensor_type;location;lat;lon;timestamp;P1;durP1;ratioP1;P2;durP2;ratioP2
22983;SDS011;11658;48.908;9.140;2023-04-25T03:01:22;3.40;;;3.03;;
22983;SDS011;11658;48.908;9.140;2023-04-25T03:03:48;5.93;;;2.90;;
22983;SDS011;11658;48.908;9.140;2023-04-25T03:06:14;3.10;;;2.80;;
22983;SDS011;11658;48.908;9.140;2023-04-25T03:08:40;3.57;;;2.87;;
22983;SDS011;11658;48.908;9.140;2023-04-25T03:11:06;3.27;;;2.90;;
22983;SDS011;11658;48.908;9.140;2023-04-25T03:13:31;4.80;;;3.20;;
22983;SDS011;11658;48.908;9.140;2023-04-25T03:15:57;4.27;;;3.03;;
22983;SDS011;11658;48.908;9.140;2023-04-25T03:18:23;3.57;;;3.27;;
22983;SDS011;11658;48.908;9.140;2023-04-25T03:20:48;3.57;;;2.97;;
22983;SDS011;11658;48.908;9.140;2023-04-25T03:23:14;4.10;;;3.30;;
22983;SDS011;11658;48.908;9.140;2023-04-25T03:25:40;4.80;;;3.13;;
22983;SDS011;11658;48.908;9.140;2023-04-25T03:28:05;3.33;;;3.07;;
22983;SDS011;11658;48.908;9.140;2023-04-25T03:30:31;4.83;;;3.27;;
22983;SDS011;11658;48.908;9.140;2023-04-25T03:32:56;3.37;;;3.00;;
22983;SDS011;11658;48.908;9.140;2023-04-25T03:35:22;3.23;;;2.93;;
22983;SDS011;11658;48.908;9.140;2023-04-25T03:37:48;5.73;;;3.13;;
22983;SDS011;11658;48.908;9.140;2023-04-25T03:40:14;3.83;;;3.40;;
22983;SDS011;11658;48.908;9.140;2023-04-25T03:42:40;3.00;;;2.70;;
22983;SDS011;11658;48.908;9.140;2023-04-25T03:45:05;3.93;;;3.17;;
22983;SDS011;11658;48.908;9.140;2023-04-25T03:47:32;3.37;;;3.03;;
22983;SDS011;11658;48.908;9.140;2023-04-25T03:49:57;3.80;;;3.30;;
22983;SDS011;11658;48.908;9.140;2023-04-25T03:52:23;3.80;;;3.40;;
22983;SDS011;11658;48.908;9.140;2023-04-25T03:54:48;3.53;;;3.23;;
22983;SDS011;11658;48.908;9.140;2023-04-25T03:57:14;3.43;;;2.97;;
22983;SDS011;11658;48.908;9.140;2023-04-25T03:59:40;3.30;;;3.00;;
22983;SDS011;11658;48.908;9.140;2023-04-25T04:02:05;3.40;;;3.10;;
22983;SDS011;11658;48.908;9.140;2023-04-25T04:04:31;4.03;;;3.30;;
22983;SDS011;11658;48.908;9.140;2023-04-25T04:06:56;5.53;;;3.47;;
22983;SDS011;11658;48.908;9.140;2023-04-25T04:09:22;4.00;;;3.60;;
22983;SDS011;11658;48.908;9.140;2023-04-25T04:11:47;3.63;;;3.27;;
22983;SDS011;11658;48.908;9.140;2023-04-25T04:14:13;3.47;;;3.03;;
22983;SDS011;11658;48.908;9.140;2023-04-25T04:16:39;5.17;;;3.50;;
22983;SDS011;11658;48.908;9.140;2023-04-25T04:19:04;4.70;;;3.30;;
22983;SDS011;11658;48.908;9.140;2023-04-25T04:21:30;4.30;;;3.30;;
22983;SDS011;11658;48.908;9.140;2023-04-25T04:23:56;3.70;;;3.30;;
22983;SDS011;11658;48.908;9.140;2023-04-25T04:26:22;4.00;;;3.60;;
22983;SDS011;11658;48.908;9.140;2023-04-25T04:28:51;3.90;;;3.60;;
22983;SDS011;11658;48.908;9.140;2023-04-25T04:31:19;4.27;;;3.87;;
22983;SDS011;11658;48.908;9.140;2023-04-25T04:33:45;4.90;;;3.90;;
22983;SDS011;11658;48.908;9.140;2023-04-25T04:36:11;3.90;;;3.30;;
22983;SDS011;11658;48.908;9.140;2023-04-25T04:38:37;4.77;;;3.40;;
22983;SDS011;11658;48.908;9.140;2023-04-25T04:41:02;4.07;;;3.67;;
22983;SDS011;11658;48.908;9.140;2023-04-25T04:43:28;3.73;;;3.43;;
22983;SDS011;11658;48.908;9.140;2023-04-25T04:45:54;5.43;;;4.20;;
22983;SDS011;11658;48.908;9.140;2023-04-25T04:48:23;5.07;;;3.90;;
22983;SDS011;11658;48.908;9.140;2023-04-25T04:50:49;5.73;;;4.30;;
22983;SDS011;11658;48.908;9.140;2023-04-25T04:53:15;4.87;;;4.10;;
22983;SDS011;11658;48.908;9.140;2023-04-25T04:55:40;4.30;;;3.80;;
22983;SDS011;11658;48.908;9.140;2023-04-25T04:58:06;5.13;;;3.77;;
22983;SDS011;11658;48.908;9.140;2023-04-25T05:00:32;4.70;;;3.97;;
22983;SDS011;11658;48.908;9.140;2023-04-25T05:02:58;4.20;;;3.80;;
22983;SDS011;11658;48.908;9.140;2023-04-25T05:05:24;4.10;;;3.70;;
22983;SDS011;11658;48.908;9.140;2023-04-25T05:07:50;3.60;;;3.30;;
22983;SDS011;11658;48.908;9.140;2023-04-25T05:10:16;4.20;;;3.70;;
22983;SDS011;11658;48.908;9.140;2023-04-25T05:12:42;4.83;;;3.90;;
22983;SDS011;11658;48.908;9.140;2023-04-25T05:15:08;3.83;;;3.40;;
22983;SDS011;11658;48.908;9.140;2023-04-25T05:17:34;4.63;;;3.60;;
22983;SDS011;11658;48.908;9.140;2023-04-25T05:20:00;3.33;;;3.00;;
22983;SDS011;11658;48.908;9.140;2023-04-25T05:22:25;3.63;;;3.33;;
22983;SDS011;11658;48.908;9.140;2023-04-25T05:24:51;3.70;;;3.20;;
22983;SDS011;11658;48.908;9.140;2023-04-25T05:27:17;3.50;;;3.20;;
22983;SDS011;11658;48.908;9.140;2023-04-25T05:29:43;3.43;;;3.13;;
22983;SDS011;11658;48.908;9.140;2023-04-25T05:32:09;4.53;;;3.40;;
22983;SDS011;11658;48.908;9.140;2023-04-25T05:34:35;6.70;;;3.47;;
22983;SDS011;11658;48.908;9.140;2023-04-25T05:37:00;3.70;;;3.40;;
22983;SDS011;11658;48.908;9.140;2023-04-25T05:39:26;3.77;;;3.37;;
22983;SDS011;11658;48.908;9.140;2023-04-25T05:41:51;5.00;;;3.43;;
22983;SDS011;11658;48.908;9.140;2023-04-25T05:44:17;4.77;;;3.70;;
22983;SDS011;11658;48.908;9.140;2023-04-25T05:46:43;3.23;;;2.93;;
22983;SDS011;11658;48.908;9.140;2023-04-25T05:49:08;3.60;;;3.30;;
22983;SDS011;11658;48.908;9.140;2023-04-25T05:51:34;3.90;;;3.50;;
22983;SDS011;11658;48.908;9.140;2023-04-25T05:54:00;3.50;;;3.20;;
22983;SDS011;11658;48.908;9.140;2023-04-25T05:56:25;3.77;;;3.27;;
22983;SDS011;11658;48.908;9.140;2023-04-25T05:58:51;4.23;;;3.50;;
22983;SDS011;11658;48.908;9.140;2023-04-25T06:01:16;3.83;;;3.30;;
22983;SDS011;11658;48.908;9.140;2023-04-25T06:03:42;3.43;;;3.00;;
22983;SDS011;11658;48.908;9.140;2023-04-25T06:06:08;3.83;;;3.20;;
22983;SDS011;11658;48.908;9.140;2023-04-25T06:08:34;3.10;;;2.90;;
22983;SDS011;11658;48.908;9.140;2023-04-25T06:11:00;3.40;;;2.97;;
22983;SDS011;11658;48.908;9.140;2023-04-25T06:13:25;3.40;;;2.80;;
22983;SDS011;11658;48.908;9.140;2023-04-25T06:15:51;3.20;;;2.90;;
22983;SDS011;11658;48.908;9.140;2023-04-25T06:18:17;3.10;;;2.73;;
22983;SDS011;11658;48.908;9.140;2023-04-25T06:20:42;3.30;;;3.00;;
22983;SDS011;11658;48.908;9.140;2023-04-25T06:23:08;3.33;;;3.00;;
22983;SDS011;11658;48.908;9.140;2023-04-25T06:25:33;5.30;;;3.23;;
22983;SDS011;11658;48.908;9.140;2023-04-25T06:27:59;3.30;;;3.00;;
22983;SDS011;11658;48.908;9.140;2023-04-25T06:30:24;3.20;;;2.90;;
22983;SDS011;11658;48.908;9.140;2023-04-25T06:32:51;3.97;;;2.60;;
22983;SDS011;11658;48.908;9.140;2023-04-25T06:35:18;3.20;;;2.90;;
22983;SDS011;11658;48.908;9.140;2023-04-25T06:37:43;3.10;;;2.67;;
22983;SDS011;11658;48.908;9.140;2023-04-25T06:40:09;2.87;;;2.60;;
22983;SDS011;11658;48.908;9.140;2023-04-25T06:42:35;3.03;;;2.77;;
22983;SDS011;11658;48.908;9.140;2023-04-25T06:45:01;2.97;;;2.77;;
22983;SDS011;11658;48.908;9.140;2023-04-25T06:47:27;3.00;;;2.70;;
22983;SDS011;11658;48.908;9.140;2023-04-25T06:49:53;2.83;;;2.63;;
22983;SDS011;11658;48.908;9.140;2023-04-25T06:52:18;3.20;;;2.90;;
22983;SDS011;11658;48.908;9.140;2023-04-25T06:54:44;2.40;;;2.20;;
22983;SDS011;11658;48.908;9.140;2023-04-25T06:57:10;3.10;;;2.80;;
22983;SDS011;11658;48.908;9.140;2023-04-25T06:59:35;4.93;;;2.80;;
22983;SDS011;11658;48.908;9.140;2023-04-25T07:02:01;3.87;;;2.80;;
22983;SDS011;11658;48.908;9.140;2023-04-25T07:04:27;3.20;;;2.90;;
22983;SDS011;11658;48.908;9.140;2023-04-25T07:06:52;3.10;;;2.80;;
22983;SDS011;11658;48.908;9.140;2023-04-25T07:09:18;3.83;;;2.90;;
22983;SDS011;11658;48.908;9.140;2023-04-25T07:11:44;3.60;;;3.30;;
22983;SDS011;11658;48.908;9.140;2023-04-25T07:14:10;3.33;;;3.03;;
22983;SDS011;11658;48.908;9.140;2023-04-25T07:16:35;3.70;;;3.40;;
22983;SDS011;11658;48.908;9.140;2023-04-25T07:19:01;4.20;;;3.80;;
22983;SDS011;11658;48.908;9.140;2023-04-25T07:21:26;4.00;;;3.53;;
22983;SDS011;11658;48.908;9.140;2023-04-25T07:23:52;4.03;;;3.63;;
22983;SDS011;11658;48.908;9.140;2023-04-25T07:26:17;5.50;;;3.20;;
22983;SDS011;11658;48.908;9.140;2023-04-25T07:28:43;4.03;;;3.27;;
22983;SDS011;11658;48.908;9.140;2023-04-25T07:31:09;4.47;;;3.57;;
22983;SDS011;11658;48.908;9.140;2023-04-25T07:33:34;3.77;;;3.47;;
22983;SDS011;11658;48.908;9.140;2023-04-25T07:36:00;3.80;;;3.40;;
22983;SDS011;11658;48.908;9.140;2023-04-25T07:38:25;3.80;;;3.20;;
22983;SDS011;11658;48.908;9.140;2023-04-25T07:40:51;4.40;;;3.50;;
22983;SDS011;11658;48.908;9.140;2023-04-25T07:43:17;6.30;;;3.80;;
22983;SDS011;11658;48.908;9.140;2023-04-25T07:45:46;5.13;;;3.50;;
22983;SDS011;11658;48.908;9.140;2023-04-25T07:48:16;4.17;;;3.50;;
22983;SDS011;11658;48.908;9.140;2023-04-25T07:50:43;3.70;;;3.40;;
22983;SDS011;11658;48.908;9.140;2023-04-25T07:53:09;3.43;;;3.10;;
22983;SDS011;11658;48.908;9.140;2023-04-25T07:55:35;3.50;;;3.20;;
22983;SDS011;11658;48.908;9.140;2023-04-25T07:58:01;3.80;;;3.23;;
22983;SDS011;11658;48.908;9.140;2023-04-25T08:00:28;4.00;;;3.30;;
22983;SDS011;11658;48.908;9.140;2023-04-25T08:02:53;4.43;;;3.40;;
22983;SDS011;11658;48.908;9.140;2023-04-25T08:05:19;4.20;;;3.60;;
22983;SDS011;11658;48.908;9.140;2023-04-25T08:07:44;4.23;;;3.63;;
22983;SDS011;11658;48.908;9.140;2023-04-25T08:10:10;4.00;;;3.67;;
22983;SDS011;11658;48.908;9.140;2023-04-25T08:12:36;4.10;;;3.70;;
22983;SDS011;11658;48.908;9.140;2023-04-25T08:15:01;4.73;;;3.80;;
22983;SDS011;11658;48.908;9.140;2023-04-25T08:17:27;4.20;;;3.80;;
22983;SDS011;11658;48.908;9.140;2023-04-25T08:19:52;4.90;;;3.70;;
22983;SDS011;11658;48.908;9.140;2023-04-25T08:22:18;5.50;;;3.80;;
22983;SDS011;11658;48.908;9.140;2023-04-25T08:24:43;4.07;;;3.63;;
22983;SDS011;11658;48.908;9.140;2023-04-25T08:27:09;3.90;;;3.50;;
22983;SDS011;11658;48.908;9.140;2023-04-25T08:29:35;3.93;;;3.53;;
22983;SDS011;11658;48.908;9.140;2023-04-25T08:32:00;3.83;;;3.40;;
22983;SDS011;11658;48.908;9.140;2023-04-25T08:34:26;3.70;;;3.40;;
22983;SDS011;11658;48.908;9.140;2023-04-25T08:36:51;3.80;;;3.40;;
22983;SDS011;11658;48.908;9.140;2023-04-25T08:39:17;3.80;;;3.40;;
22983;SDS011;11658;48.908;9.140;2023-04-25T08:41:43;4.50;;;3.70;;
22983;SDS011;11658;48.908;9.140;2023-04-25T08:44:10;5.77;;;3.60;;
22983;SDS011;11658;48.908;9.140;2023-04-25T08:46:39;4.50;;;3.73;;
22983;SDS011;11658;48.908;9.140;2023-04-25T08:49:06;6.17;;;3.83;;
22983;SDS011;11658;48.908;9.140;2023-04-25T08:51:32;5.33;;;4.23;;
22983;SDS011;11658;48.908;9.140;2023-04-25T08:54:03;5.50;;;4.30;;
22983;SDS011;11658;48.908;9.140;2023-04-25T08:56:35;5.57;;;5.07;;
22983;SDS011;11658;48.908;9.140;2023-04-25T08:59:02;5.70;;;5.13;;
22983;SDS011;11658;48.908;9.140;2023-04-25T09:01:28;5.43;;;4.90;;
22983;SDS011;11658;48.908;9.140;2023-04-25T09:03:54;6.10;;;5.53;;
22983;SDS011;11658;48.908;9.140;2023-04-25T09:06:20;6.27;;;5.67;;
22983;SDS011;11658;48.908;9.140;2023-04-25T09:08:49;5.67;;;5.17;;
22983;SDS011;11658;48.908;9.140;2023-04-25T09:11:15;6.43;;;5.63;;
22983;SDS011;11658;48.908;9.140;2023-04-25T09:13:40;6.27;;;5.67;;
22983;SDS011;11658;48.908;9.140;2023-04-25T09:16:06;6.53;;;5.87;;
22983;SDS011;11658;48.908;9.140;2023-04-25T09:18:32;6.00;;;5.30;;
22983;SDS011;11658;48.908;9.140;2023-04-25T09:23:38;6.20;;;5.63;;
22983;SDS011;11658;48.908;9.140;2023-04-25T09:26:18;5.70;;;5.17;;
22983;SDS011;11658;48.908;9.140;2023-04-25T09:28:44;5.70;;;5.20;;
22983;SDS011;11658;48.908;9.140;2023-04-25T09:31:11;6.00;;;5.50;;
22983;SDS011;11658;48.908;9.140;2023-04-25T09:33:37;5.70;;;5.10;;
22983;SDS011;11658;48.908;9.140;2023-04-25T09:38:34;5.33;;;4.83;;
22983;SDS011;11658;48.908;9.140;2023-04-25T09:41:07;5.07;;;4.53;;
22983;SDS011;11658;48.908;9.140;2023-04-25T09:43:33;5.43;;;4.07;;
22983;SDS011;11658;48.908;9.140;2023-04-25T09:45:58;4.07;;;3.77;;
22983;SDS011;11658;48.908;9.140;2023-04-25T09:48:25;4.63;;;4.23;;
22983;SDS011;11658;48.908;9.140;2023-04-25T09:53:34;4.33;;;3.93;;
22983;SDS011;11658;48.908;9.140;2023-04-25T09:56:03;4.40;;;4.00;;
22983;SDS011;11658;48.908;9.140;2023-04-25T09:58:30;4.33;;;3.93;;
22983;SDS011;11658;48.908;9.140;2023-04-25T10:00:58;5.13;;;4.63;;
22983;SDS011;11658;48.908;9.140;2023-04-25T10:03:26;6.97;;;5.63;;
22983;SDS011;11658;48.908;9.140;2023-04-25T10:05:54;6.60;;;5.90;;
22983;SDS011;11658;48.908;9.140;2023-04-25T10:08:21;6.03;;;5.43;;
22983;SDS011;11658;48.908;9.140;2023-04-25T10:10:48;6.47;;;5.87;;
22983;SDS011;11658;48.908;9.140;2023-04-25T10:13:15;8.07;;;5.23;;
22983;SDS011;11658;48.908;9.140;2023-04-25T10:15:41;7.47;;;6.60;;
22983;SDS011;11658;48.908;9.140;2023-04-25T10:18:07;9.13;;;7.67;;
22983;SDS011;11658;48.908;9.140;2023-04-25T10:20:33;9.03;;;7.70;;
22983;SDS011;11658;48.908;9.140;2023-04-25T10:23:03;7.63;;;6.93;;
22983;SDS011;11658;48.908;9.140;2023-04-25T10:25:36;6.40;;;5.77;;
22983;SDS011;11658;48.908;9.140;2023-04-25T10:28:03;6.43;;;5.83;;
22983;SDS011;11658;48.908;9.140;2023-04-25T10:30:29;6.03;;;5.53;;
22983;SDS011;11658;48.908;9.140;2023-04-25T10:32:55;7.73;;;5.37;;
22983;SDS011;11658;48.908;9.140;2023-04-25T10:35:24;5.67;;;5.13;;
22983;SDS011;11658;48.908;9.140;2023-04-25T10:41:03;5.70;;;5.10;;
22983;SDS011;11658;48.908;9.140;2023-04-25T10:45:56;5.93;;;4.97;;
22983;SDS011;11658;48.908;9.140;2023-04-25T10:48:24;5.80;;;5.20;;
22983;SDS011;11658;48.908;9.140;2023-04-25T10:51:10;5.63;;;4.90;;
22983;SDS011;11658;48.908;9.140;2023-04-25T10:53:36;6.20;;;4.90;;
22983;SDS011;11658;48.908;9.140;2023-04-25T10:56:36;5.00;;;4.60;;
22983;SDS011;11658;48.908;9.140;2023-04-25T10:59:03;4.77;;;4.27;;
22983;SDS011;11658;48.908;9.140;2023-04-25T11:01:35;6.90;;;4.83;;
22983;SDS011;11658;48.908;9.140;2023-04-25T11:04:06;5.23;;;4.77;;
22983;SDS011;11658;48.908;9.140;2023-04-25T11:06:46;5.73;;;4.43;;
22983;SDS011;11658;48.908;9.140;2023-04-25T11:09:36;4.50;;;4.10;;
22983;SDS011;11658;48.908;9.140;2023-04-25T11:12:06;4.43;;;3.83;;
22983;SDS011;11658;48.908;9.140;2023-04-25T11:14:33;3.60;;;3.30;;
22983;SDS011;11658;48.908;9.140;2023-04-25T11:16:59;4.07;;;3.67;;
22983;SDS011;11658;48.908;9.140;2023-04-25T11:19:26;3.50;;;3.20;;
22983;SDS011;11658;48.908;9.140;2023-04-25T11:21:59;5.43;;;3.60;;
22983;SDS011;11658;48.908;9.140;2023-04-25T11:24:29;4.63;;;3.70;;
22983;SDS011;11658;48.908;9.140;2023-04-25T11:26:56;4.23;;;3.47;;
22983;SDS011;11658;48.908;9.140;2023-04-25T11:29:26;4.30;;;3.80;;
22983;SDS011;11658;48.908;9.140;2023-04-25T11:31:52;4.07;;;3.67;;
22983;SDS011;11658;48.908;9.140;2023-04-25T11:34:20;4.73;;;4.33;;
22983;SDS011;11658;48.908;9.140;2023-04-25T11:36:46;4.70;;;4.30;;
22983;SDS011;11658;48.908;9.140;2023-04-25T11:39:12;4.73;;;3.60;;
22983;SDS011;11658;48.908;9.140;2023-04-25T11:41:40;4.20;;;3.80;;
22983;SDS011;11658;48.908;9.140;2023-04-25T11:44:06;4.10;;;3.70;;
22983;SDS011;11658;48.908;9.140;2023-04-25T11:46:35;3.70;;;3.40;;
22983;SDS011;11658;48.908;9.140;2023-04-25T11:49:01;4.33;;;3.80;;
22983;SDS011;11658;48.908;9.140;2023-04-25T11:51:27;4.27;;;3.87;;
22983;SDS011;11658;48.908;9.140;2023-04-25T11:53:52;4.60;;;4.10;;
22983;SDS011;11658;48.908;9.140;2023-04-25T11:56:18;4.20;;;3.80;;
22983;SDS011;11658;48.908;9.140;2023-04-25T12:03:56;4.73;;;4.33;;
22983;SDS011;11658;48.908;9.140;2023-04-25T12:06:25;5.63;;;4.60;;
22983;SDS011;11658;48.908;9.140;2023-04-25T12:09:01;5.63;;;4.70;;
22983;SDS011;11658;48.908;9.140;2023-04-25T12:11:29;7.53;;;4.83;;
22983;SDS011;11658;48.908;9.140;2023-04-25T12:13:56;6.20;;;5.17;;
22983;SDS011;11658;48.908;9.140;2023-04-25T12:16:30;7.33;;;5.57;;
22983;SDS011;11658;48.908;9.140;2023-04-25T12:19:06;5.93;;;5.27;;
22983;SDS011;11658;48.908;9.140;2023-04-25T12:21:32;6.87;;;4.60;;
22983;SDS011;11658;48.908;9.140;2023-04-25T12:24:21;7.77;;;5.00;;
22983;SDS011;11658;48.908;9.140;2023-04-25T12:29:19;5.70;;;4.67;;
22983;SDS011;11658;48.908;9.140;2023-04-25T12:31:45;4.77;;;4.07;;
22983;SDS011;11658;48.908;9.140;2023-04-25T12:34:11;5.60;;;4.47;;
22983;SDS011;11658;48.908;9.140;2023-04-25T12:36:37;4.83;;;4.43;;
22983;SDS011;11658;48.908;9.140;2023-04-25T12:39:03;6.47;;;4.70;;
22983;SDS011;11658;48.908;9.140;2023-04-25T12:41:29;9.03;;;4.57;;
22983;SDS011;11658;48.908;9.140;2023-04-25T12:43:55;5.00;;;4.50;;
22983;SDS011;11658;48.908;9.140;2023-04-25T12:46:21;5.77;;;5.07;;
22983;SDS011;11658;48.908;9.140;2023-04-25T12:48:47;6.67;;;4.73;;
22983;SDS011;11658;48.908;9.140;2023-04-25T12:51:13;5.43;;;4.87;;
22983;SDS011;11658;48.908;9.140;2023-04-25T12:53:39;7.70;;;5.50;;
22983;SDS011;11658;48.908;9.140;2023-04-25T12:56:06;5.83;;;5.20;;
22983;SDS011;11658;48.908;9.140;2023-04-25T12:58:32;6.00;;;5.37;;
22983;SDS011;11658;48.908;9.140;2023-04-25T13:00:58;11.67;;;6.03;;
22983;SDS011;11658;48.908;9.140;2023-04-25T13:03:24;6.77;;;6.07;;
22983;SDS011;11658;48.908;9.140;2023-04-25T13:05:50;10.40;;;5.77;;
22983;SDS011;11658;48.908;9.140;2023-04-25T13:08:17;7.57;;;6.40;;
22983;SDS011;11658;48.908;9.140;2023-04-25T13:10:43;6.80;;;6.10;;
22983;SDS011;11658;48.908;9.140;2023-04-25T13:13:09;7.70;;;6.80;;
22983;SDS011;11658;48.908;9.140;2023-04-25T13:15:35;10.40;;;6.67;;
22983;SDS011;11658;48.908;9.140;2023-04-25T13:18:01;10.10;;;7.20;;
22983;SDS011;11658;48.908;9.140;2023-04-25T13:20:28;7.60;;;6.90;;
22983;SDS011;11658;48.908;9.140;2023-04-25T13:22:53;8.77;;;7.00;;
22983;SDS011;11658;48.908;9.140;2023-04-25T13:25:20;9.03;;;6.83;;
22983;SDS011;11658;48.908;9.140;2023-04-25T13:27:46;9.20;;;6.23;;
22983;SDS011;11658;48.908;9.140;2023-04-25T13:30:12;7.17;;;6.27;;
22983;SDS011;11658;48.908;9.140;2023-04-25T13:32:39;7.83;;;6.93;;
22983;SDS011;11658;48.908;9.140;2023-04-25T13:35:06;9.40;;;6.73;;
22983;SDS011;11658;48.908;9.140;2023-04-25T13:37:33;9.97;;;7.17;;
22983;SDS011;11658;48.908;9.140;2023-04-25T13:40:00;7.13;;;6.33;;
22983;SDS011;11658;48.908;9.140;2023-04-25T13:42:30;7.50;;;6.70;;
22983;SDS011;11658;48.908;9.140;2023-04-25T13:44:56;6.83;;;5.80;;
22983;SDS011;11658;48.908;9.140;2023-04-25T13:47:22;6.43;;;5.80;;
22983;SDS011;11658;48.908;9.140;2023-04-25T13:49:48;6.57;;;5.90;;
22983;SDS011;11658;48.908;9.140;2023-04-25T13:52:14;8.77;;;5.93;;
22983;SDS011;11658;48.908;9.140;2023-04-25T13:54:40;7.03;;;5.87;;
22983;SDS011;11658;48.908;9.140;2023-04-25T13:57:06;7.80;;;5.90;;
22983;SDS011;11658;48.908;9.140;2023-04-25T13:59:31;6.30;;;5.40;;
22983;SDS011;11658;48.908;9.140;2023-04-25T14:01:57;6.50;;;5.27;;
22983;SDS011;11658;48.908;9.140;2023-04-25T14:04:23;5.30;;;4.80;;
22983;SDS011;11658;48.908;9.140;2023-04-25T14:06:50;6.47;;;5.40;;
22983;SDS011;11658;48.908;9.140;2023-04-25T14:09:16;6.30;;;4.73;;
22983;SDS011;11658;48.908;9.140;2023-04-25T14:11:43;4.63;;;4.23;;
22983;SDS011;11658;48.908;9.140;2023-04-25T14:14:09;6.93;;;5.03;;
22983;SDS011;11658;48.908;9.140;2023-04-25T14:16:35;5.90;;;4.50;;
22983;SDS011;11658;48.908;9.140;2023-04-25T14:19:01;5.17;;;4.30;;
22983;SDS011;11658;48.908;9.140;2023-04-25T14:21:27;5.10;;;4.50;;
22983;SDS011;11658;48.908;9.140;2023-04-25T14:23:53;7.33;;;4.93;;
22983;SDS011;11658;48.908;9.140;2023-04-25T14:26:19;6.70;;;5.70;;
22983;SDS011;11658;48.908;9.140;2023-04-25T14:28:44;6.87;;;5.03;;
22983;SDS011;11658;48.908;9.140;2023-04-25T14:31:10;5.30;;;4.37;;
22983;SDS011;11658;48.908;9.140;2023-04-25T14:33:35;6.73;;;5.03;;
22983;SDS011;11658;48.908;9.140;2023-04-25T14:36:04;8.63;;;5.40;;
22983;SDS011;11658;48.908;9.140;2023-04-25T14:38:30;7.90;;;5.10;;
22983;SDS011;11658;48.908;9.140;2023-04-25T14:40:56;5.73;;;5.13;;
22983;SDS011;11658;48.908;9.140;2023-04-25T14:43:21;7.13;;;5.53;;
22983;SDS011;11658;48.908;9.140;2023-04-25T14:45:47;6.60;;;5.47;;
22983;SDS011;11658;48.908;9.140;2023-04-25T14:48:12;8.30;;;5.80;;
22983;SDS011;11658;48.908;9.140;2023-04-25T14:50:38;7.03;;;5.10;;
22983;SDS011;11658;48.908;9.140;2023-04-25T14:53:04;6.20;;;5.60;;
22983;SDS011;11658;48.908;9.140;2023-04-25T14:55:30;6.53;;;4.87;;
22983;SDS011;11658;48.908;9.140;2023-04-25T14:57:55;7.17;;;4.63;;
22983;SDS011;11658;48.908;9.140;2023-04-25T15:00:21;5.87;;;3.80;;
22983;SDS011;11658;48.908;9.140;2023-04-25T15:02:48;5.23;;;4.23;;
22983;SDS011;11658;48.908;9.140;2023-04-25T15:05:14;6.40;;;4.30;;
22983;SDS011;11658;48.908;9.140;2023-04-25T15:07:40;5.87;;;4.60;;
22983;SDS011;11658;48.908;9.140;2023-04-25T15:10:06;5.73;;;4.33;;
22983;SDS011;11658;48.908;9.140;2023-04-25T15:12:38;4.80;;;4.30;;
22983;SDS011;11658;48.908;9.140;2023-04-25T15:15:05;5.40;;;4.90;;
22983;SDS011;11658;48.908;9.140;2023-04-25T15:17:36;6.07;;;4.70;;
22983;SDS011;11658;48.908;9.140;2023-04-25T15:20:02;6.10;;;4.43;;
22983;SDS011;11658;48.908;9.140;2023-04-25T15:22:30;6.07;;;4.53;;
22983;SDS011;11658;48.908;9.140;2023-04-25T15:24:55;6.20;;;4.87;;
22983;SDS011;11658;48.908;9.140;2023-04-25T15:27:21;8.03;;;5.30;;
22983;SDS011;11658;48.908;9.140;2023-04-25T15:29:48;5.53;;;4.73;;
22983;SDS011;11658;48.908;9.140;2023-04-25T15:32:13;8.17;;;5.57;;
22983;SDS011;11658;48.908;9.140;2023-04-25T15:34:39;8.10;;;5.27;;
22983;SDS011;11658;48.908;9.140;2023-04-25T15:37:05;5.47;;;4.73;;
22983;SDS011;11658;48.908;9.140;2023-04-25T15:39:30;6.17;;;5.00;;
22983;SDS011;11658;48.908;9.140;2023-04-25T15:41:56;6.00;;;4.93;;
22983;SDS011;11658;48.908;9.140;2023-04-25T15:44:23;6.50;;;4.57;;
22983;SDS011;11658;48.908;9.140;2023-04-25T15:46:49;7.60;;;4.87;;
22983;SDS011;11658;48.908;9.140;2023-04-25T15:49:15;5.03;;;4.37;;
22983;SDS011;11658;48.908;9.140;2023-04-25T15:51:40;6.03;;;4.53;;
22983;SDS011;11658;48.908;9.140;2023-04-25T15:54:06;5.87;;;4.33;;
22983;SDS011;11658;48.908;9.140;2023-04-25T15:56:32;5.77;;;4.67;;
22983;SDS011;11658;48.908;9.140;2023-04-25T15:58:57;7.67;;;5.00;;
22983;SDS011;11658;48.908;9.140;2023-04-25T16:01:23;6.97;;;4.73;;
22983;SDS011;11658;48.908;9.140;2023-04-25T16:03:50;7.53;;;5.13;;
22983;SDS011;11658;48.908;9.140;2023-04-25T16:06:16;7.37;;;5.00;;
22983;SDS011;11658;48.908;9.140;2023-04-25T16:08:42;4.93;;;4.37;;
22983;SDS011;11658;48.908;9.140;2023-04-25T16:11:07;6.23;;;4.40;;
22983;SDS011;11658;48.908;9.140;2023-04-25T16:13:33;8.60;;;4.23;;
22983;SDS011;11658;48.908;9.140;2023-04-25T16:16:00;5.77;;;4.83;;
22983;SDS011;11658;48.908;9.140;2023-04-25T16:18:26;5.00;;;4.40;;
22983;SDS011;11658;48.908;9.140;2023-04-25T16:20:51;8.13;;;4.80;;
22983;SDS011;11658;48.908;9.140;2023-04-25T16:23:17;5.87;;;4.63;;
22983;SDS011;11658;48.908;9.140;2023-04-25T16:25:43;5.87;;;4.57;;
22983;SDS011;11658;48.908;9.140;2023-04-25T16:28:09;6.27;;;4.20;;
22983;SDS011;11658;48.908;9.140;2023-04-25T16:30:35;5.97;;;4.93;;
22983;SDS011;11658;48.908;9.140;2023-04-25T16:33:01;5.63;;;4.57;;
22983;SDS011;11658;48.908;9.140;2023-04-25T16:35:26;5.53;;;4.93;;
22983;SDS011;11658;48.908;9.140;2023-04-25T16:37:54;7.33;;;4.80;;
22983;SDS011;11658;48.908;9.140;2023-04-25T16:40:20;6.90;;;5.17;;
22983;SDS011;11658;48.908;9.140;2023-04-25T16:42:46;8.33;;;5.20;;
22983;SDS011;11658;48.908;9.140;2023-04-25T16:45:12;11.27;;;4.70;;
22983;SDS011;11658;48.908;9.140;2023-04-25T16:47:38;6.30;;;4.57;;
22983;SDS011;11658;48.908;9.140;2023-04-25T16:50:04;5.53;;;4.53;;
22983;SDS011;11658;48.908;9.140;2023-04-25T16:52:30;7.90;;;5.07;;
22983;SDS011;11658;48.908;9.140;2023-04-25T16:54:56;6.03;;;4.73;;
22983;SDS011;11658;48.908;9.140;2023-04-25T16:57:21;5.50;;;4.70;;
22983;SDS011;11658;48.908;9.140;2023-04-25T16:59:47;7.07;;;4.67;;
22983;SDS011;11658;48.908;9.140;2023-04-25T17:02:13;6.97;;;4.73;;
22983;SDS011;11658;48.908;9.140;2023-04-25T17:04:39;5.90;;;4.93;;
22983;SDS011;11658;48.908;9.140;2023-04-25T17:07:06;9.40;;;5.07;;
22983;SDS011;11658;48.908;9.140;2023-04-25T17:09:32;6.17;;;4.60;;
22983;SDS011;11658;48.908;9.140;2023-04-25T17:11:57;5.60;;;5.03;;
22983;SDS011;11658;48.908;9.140;2023-04-25T17:14:23;7.47;;;5.30;;
22983;SDS011;11658;48.908;9.140;2023-04-25T17:16:49;6.47;;;5.73;;
22983;SDS011;11658;48.908;9.140;2023-04-25T17:19:14;5.73;;;5.00;;
22983;SDS011;11658;48.908;9.140;2023-04-25T17:21:40;5.47;;;4.90;;
22983;SDS011;11658;48.908;9.140;2023-04-25T17:24:07;7.87;;;4.27;;
22983;SDS011;11658;48.908;9.140;2023-04-25T17:26:36;5.33;;;4.67;;
22983;SDS011;11658;48.908;9.140;2023-04-25T17:29:02;7.33;;;4.00;;
22983;SDS011;11658;48.908;9.140;2023-04-25T17:31:28;3.77;;;3.40;;
22983;SDS011;11658;48.908;9.140;2023-04-25T17:33:54;2.70;;;2.50;;
22983;SDS011;11658;48.908;9.140;2023-04-25T17:36:23;2.70;;;2.43;;
22983;SDS011;11658;48.908;9.140;2023-04-25T17:38:48;2.50;;;2.30;;
22983;SDS011;11658;48.908;9.140;2023-04-25T17:41:14;2.90;;;2.20;;
22983;SDS011;11658;48.908;9.140;2023-04-25T17:43:39;3.27;;;2.80;;
22983;SDS011;11658;48.908;9.140;2023-04-25T17:46:05;3.53;;;3.13;;
22983;SDS011;11658;48.908;9.140;2023-04-25T17:48:31;3.93;;;3.53;;
22983;SDS011;11658;48.908;9.140;2023-04-25T17:50:57;3.43;;;3.13;;
22983;SDS011;11658;48.908;9.140;2023-04-25T17:53:23;5.27;;;3.50;;
22983;SDS011;11658;48.908;9.140;2023-04-25T17:55:48;4.27;;;3.53;;
22983;SDS011;11658;48.908;9.140;2023-04-25T17:58:14;4.70;;;4.17;;
22983;SDS011;11658;48.908;9.140;2023-04-25T18:00:40;6.07;;;4.47;;
22983;SDS011;11658;48.908;9.140;2023-04-25T18:03:06;5.73;;;4.53;;
22983;SDS011;11658;48.908;9.140;2023-04-25T18:05:32;5.40;;;4.50;;